Time;durP1;ratioP1;P1;durP2;ratioP2;P2;SDS_P1;SDS_P2;PMS_P1;PMS_P2;Temp;Humidity;BMP_temperature;BMP_pressure;BME280_temperature;BME280_humidity;BME280_pressure;Samples;Min_cycle;Max_cycle;Signal;HPM_P1;HPM_P2
2023/09/19 00:01:00;;;;;;;3.80;2.77;;;23.20;92.60;;;;;;4978872;28;20441;-71
2023/09/19 00:03:31;;;;;;;3.03;2.60;;;23.20;92.60;;;;;;4963562;28;20504;-71
2023/09/19 00:05:58;;;;;;;4.57;2.93;;;23.20;92.50;;;;;;4953246;28;20941;-71
2023/09/19 00:08:27;;;;;;;4.43;3.20;;;23.20;92.50;;;;;;4953173;28;20585;-71
2023/09/19 00:10:54;;;;;;;4.90;3.30;;;23.20;92.50;;;;;;4953380;28;20548;-71
2023/09/19 00:13:20;;;;;;;4.90;2.93;;;23.20;92.60;;;;;;4964696;28;20427;-69
2023/09/19 00:15:49;;;;;;;5.83;3.03;;;23.10;92.50;;;;;;4962558;28;20457;-69
2023/09/19 00:18:18;;;;;;;3.67;2.43;;;23.10;92.40;;;;;;4971478;28;20535;-69
2023/09/19 00:20:47;;;;;;;5.57;3.10;;;23.10;92.50;;;;;;4973028;28;21152;-69
2023/09/19 00:23:13;;;;;;;4.50;2.80;;;23.10;92.40;;;;;;4973781;28;20446;-70
2023/09/19 00:25:42;;;;;;;3.53;2.83;;;23.10;92.40;;;;;;4960200;28;21079;-69
2023/09/19 00:28:09;;;;;;;7.90;3.40;;;23.10;92.40;;;;;;4972861;28;20488;-69
2023/09/19 00:30:36;;;;;;;4.23;3.20;;;23.10;92.30;;;;;;4970530;28;20768;-69
2023/09/19 00:33:07;;;;;;;7.20;3.10;;;23.00;92.30;;;;;;4948840;28;20432;-70
2023/09/19 00:35:37;;;;;;;4.03;2.40;;;23.00;92.30;;;;;;4966388;28;20434;-69
2023/09/19 00:38:03;;;;;;;4.50;3.07;;;23.00;92.30;;;;;;4953860;28;21425;-70
2023/09/19 00:40:33;;;;;;;4.50;3.17;;;23.00;92.30;;;;;;4932424;28;20556;-69
2023/09/19 00:43:04;;;;;;;3.80;3.10;;;23.00;92.30;;;;;;4953052;28;20457;-69
2023/09/19 00:45:31;;;;;;;4.00;2.50;;;23.00;92.20;;;;;;4951828;28;20457;-69
2023/09/19 00:48:11;;;;;;;4.60;2.97;;;23.00;92.20;;;;;;4979753;28;20421;-69
2023/09/19 00:50:47;;;;;;;3.20;2.87;;;22.90;92.20;;;;;;4973772;28;20590;-69
2023/09/19 00:53:18;;;;;;;4.43;3.27;;;22.90;92.20;;;;;;4978024;28;20511;-69
2023/09/19 00:55:46;;;;;;;5.57;3.20;;;22.90;92.20;;;;;;4968609;28;21062;-69
2023/09/19 00:58:14;;;;;;;4.27;3.03;;;22.90;92.20;;;;;;4961402;28;20921;-69
2023/09/19 01:00:41;;;;;;;4.10;2.50;;;22.90;92.10;;;;;;4958240;28;20454;-69
2023/09/19 01:03:07;;;;;;;5.17;2.90;;;22.90;92.10;;;;;;4967025;28;20443;-69
2023/09/19 01:05:34;;;;;;;8.00;2.97;;;22.90;92.00;;;;;;4962613;28;21009;-69
2023/09/19 01:08:06;;;;;;;5.80;3.40;;;22.80;92.00;;;;;;4978758;28;20546;-69
2023/09/19 01:10:35;;;;;;;5.57;3.10;;;22.80;92.00;;;;;;4950600;28;20454;-69
2023/09/19 01:13:10;;;;;;;4.80;3.10;;;22.80;92.00;;;;;;4964524;28;20432;-70
2023/09/19 01:15:43;;;;;;;5.43;3.10;;;22.80;92.40;;;;;;4987270;28;21023;-69
2023/09/19 01:18:15;;;;;;;5.27;2.87;;;22.70;92.00;;;;;;4954515;28;20448;-70
2023/09/19 01:21:23;;;;;;;4.10;2.80;;;22.70;92.00;;;;;;4966556;28;20461;-69
2023/09/19 01:24:35;;;;;;;5.90;3.30;;;22.70;91.90;;;;;;4967834;28;21021;-69
2023/09/19 01:27:20;;;;;;;5.30;2.70;;;22.70;91.90;;;;;;4984177;28;20432;-69
2023/09/19 01:29:48;;;;;;;6.50;3.10;;;22.70;91.90;;;;;;4982410;28;20432;-69
2023/09/19 01:32:21;;;;;;;6.70;2.70;;;22.70;92.00;;;;;;4986492;28;20463;-69
2023/09/19 01:34:53;;;;;;;5.90;3.20;;;22.60;91.90;;;;;;4961266;28;20538;-69
2023/09/19 01:37:25;;;;;;;6.90;3.23;;;22.60;91.90;;;;;;4948812;28;20519;-69
2023/09/19 01:39:56;;;;;;;3.87;2.80;;;22.60;91.90;;;;;;4979505;28;20424;-69
2023/09/19 01:42:52;;;;;;;5.20;2.80;;;22.60;91.90;;;;;;4954104;28;20445;-69
2023/09/19 01:45:21;;;;;;;4.10;2.77;;;22.60;91.90;;;;;;4942829;28;21136;-69
2023/09/19 01:48:01;;;;;;;2.90;2.70;;;22.60;91.90;;;;;;4960872;28;21062;-69
2023/09/19 01:50:40;;;;;;;6.10;3.63;;;22.60;91.90;;;;;;4973492;28;20549;-69
2023/09/19 01:53:34;;;;;;;5.00;2.87;;;22.50;91.80;;;;;;4959909;28;20459;-69
2023/09/19 01:56:05;;;;;;;5.30;3.43;;;22.50;91.80;;;;;;4942922;28;20434;-69
2023/09/19 01:58:45;;;;;;;7.57;3.20;;;22.50;91.80;;;;;;4975339;28;21103;-69
2023/09/19 02:01:15;;;;;;;7.00;3.00;;;22.50;91.70;;;;;;4955336;28;20531;-69
2023/09/19 02:03:44;;;;;;;4.50;3.10;;;22.50;91.70;;;;;;4980629;28;20571;-69
2023/09/19 02:06:15;;;;;;;5.50;3.13;;;22.50;91.70;;;;;;4966613;28;20432;-69
2023/09/19 02:08:47;;;;;;;3.07;2.73;;;22.50;91.60;;;;;;4972324;28;20460;-69
2023/09/19 02:11:13;;;;;;;4.47;2.97;;;22.40;91.50;;;;;;4966473;28;21031;-69
2023/09/19 02:13:43;;;;;;;6.43;3.47;;;22.40;91.50;;;;;;4972944;28;20515;-69
2023/09/19 02:16:12;;;;;;;6.10;3.37;;;22.40;91.30;;;;;;4988281;28;20439;-69
2023/09/19 02:18:41;;;;;;;6.13;3.50;;;22.40;91.30;;;;;;4978774;28;20518;-69
2023/09/19 02:21:12;;;;;;;5.73;3.50;;;22.40;91.40;;;;;;4965032;28;20449;-69
2023/09/19 02:23:44;;;;;;;5.57;3.73;;;22.30;91.40;;;;;;4970690;28;20529;-69
2023/09/19 02:26:14;;;;;;;6.03;3.33;;;22.30;91.40;;;;;;4979819;28;20436;-69
2023/09/19 02:28:41;;;;;;;4.63;2.80;;;22.30;91.40;;;;;;4996880;28;20431;-70
2023/09/19 02:31:10;;;;;;;5.60;3.30;;;22.30;91.40;;;;;;4962443;28;20551;-69
2023/09/19 02:33:37;;;;;;;6.37;2.77;;;22.30;91.40;;;;;;4946450;28;20435;-69
2023/09/19 02:36:03;;;;;;;4.87;3.13;;;22.30;91.40;;;;;;4953702;28;20467;-69
2023/09/19 02:38:32;;;;;;;6.97;3.63;;;22.30;91.40;;;;;;4945693;28;21073;-69
2023/09/19 02:41:03;;;;;;;8.30;3.80;;;22.20;91.20;;;;;;4933979;28;20509;-69
2023/09/19 02:43:31;;;;;;;6.33;3.67;;;22.20;91.30;;;;;;4946139;28;20433;-69
2023/09/19 02:45:57;;;;;;;6.17;3.10;;;22.20;91.20;;;;;;4955121;28;20503;-69
2023/09/19 02:48:25;;;;;;;3.80;3.10;;;22.20;91.20;;;;;;4963385;28;20433;-69
2023/09/19 02:50:52;;;;;;;4.63;2.90;;;22.20;91.20;;;;;;4949073;28;20465;-69
2023/09/19 02:53:25;;;;;;;4.30;3.10;;;22.20;91.00;;;;;;4976832;28;20714;-69
2023/09/19 02:55:52;;;;;;;5.93;3.40;;;22.10;91.00;;;;;;4984300;28;20428;-69
2023/09/19 02:58:18;;;;;;;3.77;3.30;;;22.10;91.00;;;;;;4973290;28;20439;-69
2023/09/19 03:00:49;;;;;;;3.10;2.80;;;22.10;90.90;;;;;;4985338;28;20949;-69
2023/09/19 03:03:21;;;;;;;5.00;3.10;;;22.10;90.90;;;;;;4956369;28;20439;-69
2023/09/19 03:05:51;;;;;;;4.27;3.20;;;22.10;90.90;;;;;;4967875;28;20445;-70
2023/09/19 03:08:21;;;;;;;7.27;3.60;;;22.10;90.90;;;;;;4970688;28;21000;-69
2023/09/19 03:10:50;;;;;;;4.43;3.23;;;22.10;90.80;;;;;;4952571;28;20455;-69
2023/09/19 03:13:21;;;;;;;5.27;3.30;;;22.00;90.80;;;;;;4950152;28;20447;-69
2023/09/19 03:15:50;;;;;;;7.20;3.27;;;22.00;90.80;;;;;;4973848;28;20427;-70
2023/09/19 03:18:23;;;;;;;4.73;3.30;;;22.00;90.60;;;;;;4949406;28;20498;-69
2023/09/19 03:20:59;;;;;;;5.77;3.10;;;22.00;90.60;;;;;;4963932;28;20449;-70
2023/09/19 03:23:29;;;;;;;5.23;3.40;;;22.00;90.60;;;;;;4966946;28;20439;-69
2023/09/19 03:25:58;;;;;;;5.97;3.90;;;22.00;90.70;;;;;;4946940;28;20576;-70
2023/09/19 03:28:27;;;;;;;3.97;2.73;;;21.90;90.70;;;;;;4948932;28;20440;-69
2023/09/19 03:31:08;;;;;;;5.27;3.43;;;21.90;90.60;;;;;;4969111;28;20456;-69
2023/09/19 03:33:38;;;;;;;5.07;3.40;;;21.90;90.70;;;;;;4957507;28;20442;-69
2023/09/19 03:36:05;;;;;;;7.27;3.40;;;21.90;90.70;;;;;;4969418;28;20791;-69
2023/09/19 03:38:32;;;;;;;4.37;3.53;;;21.90;90.80;;;;;;4972398;28;20444;-69
2023/09/19 03:41:04;;;;;;;7.60;3.70;;;21.90;90.80;;;;;;4961069;28;20471;-69
2023/09/19 03:43:32;;;;;;;4.97;3.30;;;21.90;90.80;;;;;;4983935;28;21384;-69
2023/09/19 03:46:05;;;;;;;8.20;3.77;;;21.90;90.80;;;;;;4959888;28;21113;-69
2023/09/19 03:48:33;;;;;;;4.47;3.00;;;21.90;90.80;;;;;;4964878;28;20454;-69
2023/09/19 03:51:02;;;;;;;5.73;3.50;;;21.80;90.70;;;;;;4972907;28;20821;-70
2023/09/19 03:53:28;;;;;;;8.40;3.50;;;21.80;90.80;;;;;;4955401;28;20791;-69
2023/09/19 03:56:00;;;;;;;8.90;3.47;;;21.90;90.80;;;;;;4962307;28;20990;-69
2023/09/19 03:58:28;;;;;;;6.20;3.33;;;21.80;90.80;;;;;;4978899;28;20457;-69
2023/09/19 04:00:58;;;;;;;7.20;3.80;;;21.80;90.90;;;;;;4978025;28;20453;-69
2023/09/19 04:03:34;;;;;;;3.70;2.90;;;21.80;90.90;;;;;;4977510;28;20491;-70
2023/09/19 04:06:01;;;;;;;6.90;3.40;;;21.80;90.90;;;;;;4966322;28;21001;-69
2023/09/19 04:08:29;;;;;;;5.97;3.37;;;21.80;90.90;;;;;;4990747;28;20471;-69
2023/09/19 04:10:56;;;;;;;6.30;3.50;;;21.80;90.90;;;;;;4959586;28;20482;-69
2023/09/19 04:13:22;;;;;;;5.70;3.33;;;21.70;90.90;;;;;;4978456;28;21228;-69
2023/09/19 04:15:53;;;;;;;5.70;3.80;;;21.80;90.90;;;;;;4979385;28;20432;-69
2023/09/19 04:18:20;;;;;;;3.90;3.47;;;21.70;90.90;;;;;;4967854;28;20432;-69
2023/09/19 04:20:52;;;;;;;5.20;3.77;;;21.70;90.80;;;;;;4974686;28;21018;-69
2023/09/19 04:23:20;;;;;;;6.13;3.50;;;21.70;90.90;;;;;;4960370;28;20456;-69
2023/09/19 04:25:47;;;;;;;5.03;3.50;;;21.70;90.90;;;;;;4983498;28;20479;-69
2023/09/19 04:28:12;;;;;;;3.97;3.07;;;21.70;90.90;;;;;;4966690;28;20452;-70
2023/09/19 04:30:42;;;;;;;5.00;3.20;;;21.70;90.90;;;;;;4969688;28;20461;-69
2023/09/19 04:33:10;;;;;;;6.20;3.40;;;21.70;90.90;;;;;;4956887;28;20263;-71
2023/09/19 04:35:36;;;;;;;4.30;2.93;;;21.70;91.00;;;;;;4970600;28;20423;-75
2023/09/19 04:38:03;;;;;;;5.50;3.70;;;21.60;90.90;;;;;;4986231;28;20808;-74
2023/09/19 04:40:29;;;;;;;7.03;4.33;;;21.60;90.90;;;;;;4963121;28;21228;-73
2023/09/19 04:43:00;;;;;;;5.90;3.70;;;21.60;90.90;;;;;;4982995;28;20423;-72
2023/09/19 04:45:31;;;;;;;4.77;3.70;;;21.60;91.00;;;;;;4982850;28;21067;-72
2023/09/19 04:47:57;;;;;;;4.73;3.20;;;21.60;91.00;;;;;;4942253;28;20930;-72
2023/09/19 04:50:26;;;;;;;6.03;4.17;;;21.60;91.00;;;;;;4974968;28;20474;-72
2023/09/19 04:52:53;;;;;;;6.13;3.50;;;21.60;91.00;;;;;;4980124;28;20427;-72
2023/09/19 04:55:20;;;;;;;6.23;3.63;;;21.60;91.00;;;;;;4950744;28;20452;-73
2023/09/19 04:57:47;;;;;;;4.30;2.97;;;21.50;90.90;;;;;;4970795;28;20464;-72
2023/09/19 05:00:18;;;;;;;5.93;4.03;;;21.50;90.90;;;;;;4962134;28;20451;-72
2023/09/19 05:02:45;;;;;;;3.70;3.40;;;21.50;91.00;;;;;;4993595;28;20996;-72
2023/09/19 05:05:12;;;;;;;5.23;3.70;;;21.50;91.00;;;;;;4986189;28;20461;-72
2023/09/19 05:07:40;;;;;;;4.10;3.30;;;21.50;91.00;;;;;;4973554;28;20947;-73
2023/09/19 05:10:07;;;;;;;3.33;3.03;;;21.50;91.00;;;;;;4963271;28;21234;-72
2023/09/19 05:12:36;;;;;;;5.47;3.53;;;21.50;91.00;;;;;;4991466;28;20421;-72
2023/09/19 05:15:12;;;;;;;8.80;4.07;;;21.50;91.00;;;;;;4949492;28;20483;-72
2023/09/19 05:17:42;;;;;;;6.10;3.07;;;21.40;91.00;;;;;;4974075;28;20439;-72
2023/09/19 05:20:15;;;;;;;7.33;3.90;;;21.40;91.00;;;;;;4947453;28;20466;-72
2023/09/19 05:22:43;;;;;;;6.43;4.07;;;21.40;91.00;;;;;;4969247;28;20462;-72
2023/09/19 05:25:16;;;;;;;7.53;3.27;;;21.40;91.00;;;;;;4973755;28;20479;-73
2023/09/19 05:27:43;;;;;;;5.67;3.60;;;21.40;91.00;;;;;;4959221;28;20437;-72
2023/09/19 05:30:10;;;;;;;4.90;3.27;;;21.40;91.00;;;;;;4972479;28;20541;-73
2023/09/19 05:32:36;;;;;;;4.27;3.30;;;21.40;91.00;;;;;;4978959;28;20443;-73
2023/09/19 05:35:04;;;;;;;5.63;3.20;;;21.40;91.00;;;;;;4960840;28;20456;-73
2023/09/19 05:37:30;;;;;;;5.73;4.10;;;21.40;91.00;;;;;;4987637;28;20434;-73
2023/09/19 05:39:59;;;;;;;9.23;3.83;;;21.40;91.00;;;;;;4988490;28;21305;-73
2023/09/19 05:42:29;;;;;;;3.53;3.23;;;21.30;91.00;;;;;;4960077;28;20486;-72
2023/09/19 05:44:56;;;;;;;5.00;3.10;;;21.30;91.00;;;;;;4979487;28;20486;-71
2023/09/19 05:47:22;;;;;;;4.60;3.03;;;21.30;91.00;;;;;;4974701;28;21006;-73
2023/09/19 05:49:54;;;;;;;4.07;2.93;;;21.30;90.90;;;;;;4991500;28;20508;-73
2023/09/19 05:52:22;;;;;;;5.13;3.20;;;21.30;90.90;;;;;;4982972;28;20460;-74
2023/09/19 05:54:49;;;;;;;6.10;3.40;;;21.30;90.90;;;;;;4985498;28;20535;-74
2023/09/19 05:57:22;;;;;;;4.30;3.00;;;21.30;91.30;;;;;;4995057;28;20430;-78
2023/09/19 05:59:50;;;;;;;5.20;3.23;;;21.30;91.00;;;;;;4962166;28;20433;-74
2023/09/19 06:02:16;;;;;;;4.60;2.83;;;21.20;90.90;;;;;;4973483;28;20542;-74
2023/09/19 06:04:42;;;;;;;6.57;3.40;;;21.20;90.90;;;;;;4977192;28;21029;-74
2023/09/19 06:07:08;;;;;;;6.50;3.57;;;21.20;90.90;;;;;;4966356;28;20464;-74
2023/09/19 06:09:36;;;;;;;4.23;3.17;;;21.20;90.90;;;;;;4976179;28;20804;-74
2023/09/19 06:12:04;;;;;;;4.50;3.30;;;21.20;90.90;;;;;;4978220;28;20457;-74
2023/09/19 06:14:33;;;;;;;5.50;3.50;;;21.20;90.90;;;;;;4978837;28;21005;-76
2023/09/19 06:17:00;;;;;;;8.30;3.50;;;21.20;90.90;;;;;;4959085;28;20466;-75
2023/09/19 06:19:26;;;;;;;7.13;3.10;;;21.20;90.80;;;;;;4965509;28;20484;-75
2023/09/19 06:21:53;;;;;;;3.53;2.77;;;21.20;90.80;;;;;;4961846;28;20516;-75
2023/09/19 06:24:21;;;;;;;6.00;3.27;;;21.20;90.80;;;;;;4963856;28;20496;-75
2023/09/19 06:26:47;;;;;;;5.93;3.43;;;21.10;90.80;;;;;;4965089;28;20440;-75
2023/09/19 06:29:14;;;;;;;5.63;2.90;;;21.10;90.80;;;;;;4976836;28;20486;-74
2023/09/19 06:31:40;;;;;;;4.50;2.90;;;21.10;90.80;;;;;;4983348;28;20447;-75
2023/09/19 06:34:08;;;;;;;5.53;3.30;;;21.10;90.80;;;;;;4975468;28;20502;-75
2023/09/19 06:36:34;;;;;;;8.37;3.73;;;21.10;90.80;;;;;;4971139;28;20435;-75
2023/09/19 06:39:00;;;;;;;9.03;3.37;;;21.10;90.80;;;;;;4973257;28;20427;-75
2023/09/19 06:41:27;;;;;;;7.10;3.70;;;21.10;91.10;;;;;;4975740;28;20822;-75
2023/09/19 06:43:54;;;;;;;5.17;3.43;;;21.10;90.80;;;;;;4994625;28;20467;-75
2023/09/19 06:46:19;;;;;;;7.00;3.90;;;21.10;90.80;;;;;;4976524;28;20524;-77
2023/09/19 06:48:47;;;;;;;7.20;3.50;;;21.10;90.80;;;;;;4985859;28;20433;-75
2023/09/19 06:51:16;;;;;;;8.40;3.80;;;21.10;90.80;;;;;;4979829;28;20457;-75
2023/09/19 06:53:42;;;;;;;4.20;2.90;;;21.10;90.90;;;;;;4977764;28;20459;-75
2023/09/19 06:56:08;;;;;;;5.20;4.13;;;21.00;90.80;;;;;;4953529;28;20867;-75
2023/09/19 06:58:39;;;;;;;9.50;2.97;;;21.10;90.90;;;;;;4979169;28;20471;-74
2023/09/19 07:01:05;;;;;;;4.57;3.33;;;21.00;90.80;;;;;;4970126;28;21191;-75
2023/09/19 07:03:33;;;;;;;3.93;3.03;;;21.00;90.80;;;;;;4961621;28;20436;-75
2023/09/19 07:06:04;;;;;;;5.33;3.20;;;21.00;91.10;;;;;;4952267;28;20438;-75
2023/09/19 07:08:31;;;;;;;5.50;3.33;;;21.00;90.90;;;;;;5059936;23;20495;-72
2023/09/19 07:10:58;;;;;;;4.77;3.40;;;21.00;90.90;;;;;;4981634;28;20448;-73
2023/09/19 07:13:25;;;;;;;7.73;3.20;;;21.00;90.90;;;;;;4959810;28;21294;-73
2023/09/19 07:15:51;;;;;;;5.30;3.40;;;20.90;91.20;;;;;;4941874;28;20449;-72
2023/09/19 07:18:20;;;;;;;4.80;3.60;;;21.00;90.90;;;;;;4964739;28;20987;-72
2023/09/19 07:20:49;;;;;;;6.20;3.70;;;21.00;90.90;;;;;;4943573;28;20570;-72
2023/09/19 07:23:22;;;;;;;6.20;3.87;;;21.00;91.30;;;;;;4968496;28;20434;-71
2023/09/19 07:25:50;;;;;;;4.20;3.03;;;21.00;90.90;;;;;;4966828;28;20890;-72
2023/09/19 07:28:19;;;;;;;5.83;3.37;;;21.00;90.90;;;;;;4986861;28;20468;-71
2023/09/19 07:30:50;;;;;;;6.40;3.70;;;20.90;90.90;;;;;;4961478;28;20451;-71
2023/09/19 07:33:17;;;;;;;7.53;3.90;;;20.90;91.00;;;;;;4951648;28;20478;-72
2023/09/19 07:35:46;;;;;;;5.33;3.03;;;20.90;91.00;;;;;;4964490;28;20460;-71
2023/09/19 07:38:15;;;;;;;4.00;2.90;;;20.90;91.00;;;;;;4947505;28;20515;-72
2023/09/19 07:40:44;;;;;;;4.30;2.80;;;20.90;91.00;;;;;;4960939;28;20456;-71
2023/09/19 07:43:13;;;;;;;6.10;3.70;;;20.90;91.00;;;;;;4973005;28;20451;-72
2023/09/19 07:45:42;;;;;;;4.40;3.10;;;20.90;91.00;;;;;;4955489;28;20475;-72
2023/09/19 07:48:14;;;;;;;6.40;3.37;;;20.90;91.00;;;;;;4969822;28;20473;-72
2023/09/19 07:50:43;;;;;;;7.37;3.63;;;20.90;91.10;;;;;;4969115;28;20456;-72
2023/09/19 07:53:17;;;;;;;11.50;4.20;;;20.90;91.10;;;;;;4984761;28;20465;-71
2023/09/19 07:55:43;;;;;;;4.13;3.50;;;20.90;91.00;;;;;;4984582;28;20467;-71
2023/09/19 07:58:10;;;;;;;5.60;3.63;;;20.90;91.10;;;;;;4952677;28;20868;-72
2023/09/19 08:00:36;;;;;;;4.60;3.50;;;20.90;91.10;;;;;;4975762;28;20482;-72
2023/09/19 08:03:08;;;;;;;5.57;2.80;;;20.90;91.10;;;;;;4965901;28;20803;-72
2023/09/19 08:05:36;;;;;;;5.87;3.77;;;20.90;91.10;;;;;;4974886;28;20491;-71
2023/09/19 08:08:06;;;;;;;3.87;3.27;;;20.90;91.10;;;;;;4995642;28;20965;-72
2023/09/19 08:10:35;;;;;;;6.67;3.37;;;20.90;91.10;;;;;;4973049;28;20558;-72
2023/09/19 08:13:02;;;;;;;3.13;2.80;;;20.90;91.10;;;;;;4971319;28;21102;-72
2023/09/19 08:15:29;;;;;;;6.80;3.60;;;20.90;91.10;;;;;;4939960;28;20463;-72
2023/09/19 08:17:55;;;;;;;3.33;3.00;;;20.90;91.20;;;;;;4960573;28;20436;-72
2023/09/19 08:20:21;;;;;;;5.83;3.10;;;20.90;91.50;;;;;;4957858;28;20455;-71
2023/09/19 08:22:54;;;;;;;4.37;3.97;;;20.90;91.20;;;;;;4972545;28;21085;-71
2023/09/19 08:25:28;;;;;;;6.90;3.83;;;20.90;91.20;;;;;;4949104;28;20748;-72
2023/09/19 08:27:57;;;;;;;6.77;3.17;;;20.90;91.10;;;;;;4962349;28;20444;-72
2023/09/19 08:30:26;;;;;;;4.27;3.13;;;20.90;91.20;;;;;;4980856;28;21301;-71
2023/09/19 08:33:14;;;;;;;7.10;4.00;;;20.80;91.10;;;;;;4954034;28;20455;-72
2023/09/19 08:35:43;;;;;;;7.03;3.67;;;20.80;91.10;;;;;;4991711;28;20454;-72
2023/09/19 08:38:14;;;;;;;6.60;3.50;;;20.90;91.20;;;;;;4971929;28;20454;-72
2023/09/19 08:40:42;;;;;;;4.30;2.77;;;20.90;91.20;;;;;;4976470;28;20462;-72
2023/09/19 08:43:09;;;;;;;7.67;3.80;;;20.80;91.20;;;;;;4968252;28;21035;-72
2023/09/19 08:45:38;;;;;;;3.93;3.20;;;20.80;91.20;;;;;;4968354;28;20500;-72
2023/09/19 08:48:16;;;;;;;6.90;3.27;;;20.90;91.30;;;;;;4965670;28;20458;-72
2023/09/19 08:50:59;;;;;;;5.40;3.93;;;20.90;91.30;;;;;;4956978;28;20463;-72
2023/09/19 08:53:52;;;;;;;5.53;3.70;;;20.90;91.30;;;;;;4971899;28;21100;-72
2023/09/19 08:56:22;;;;;;;6.37;3.43;;;20.90;91.30;;;;;;4965326;28;21166;-72
2023/09/19 08:58:56;;;;;;;7.37;3.67;;;20.80;91.20;;;;;;4975130;28;20430;-72
2023/09/19 09:01:28;;;;;;;8.53;3.50;;;20.80;91.20;;;;;;4966939;28;20527;-72
2023/09/19 09:03:58;;;;;;;7.97;3.80;;;20.90;91.10;;;;;;4942951;28;20427;-71
2023/09/19 09:06:25;;;;;;;8.47;3.63;;;20.90;91.10;;;;;;4957649;28;20439;-71
2023/09/19 09:08:55;;;;;;;4.60;3.00;;;20.80;91.10;;;;;;4958757;28;20449;-71
2023/09/19 09:11:37;;;;;;;5.57;3.83;;;20.80;91.20;;;;;;4948292;28;21034;-72
2023/09/19 09:14:03;;;;;;;9.47;4.27;;;20.90;91.20;;;;;;4960580;28;20436;-72
2023/09/19 09:16:31;;;;;;;3.87;3.37;;;20.90;91.20;;;;;;4958143;28;20497;-72
2023/09/19 09:19:01;;;;;;;7.50;3.30;;;20.80;91.20;;;;;;4975021;28;20527;-71
2023/09/19 09:21:30;;;;;;;7.87;3.37;;;20.80;91.20;;;;;;4927279;28;20461;-71
2023/09/19 09:23:56;;;;;;;8.93;3.70;;;20.80;91.20;;;;;;4971169;28;20563;-71
2023/09/19 09:26:43;;;;;;;6.17;3.30;;;20.90;91.30;;;;;;4988840;28;20434;-72
2023/09/19 09:29:11;;;;;;;4.33;3.20;;;20.90;91.20;;;;;;4949914;28;21216;-72
2023/09/19 09:31:42;;;;;;;6.47;3.00;;;20.90;91.10;;;;;;4950661;28;20456;-72
2023/09/19 09:34:13;;;;;;;5.30;3.77;;;20.90;91.10;;;;;;4970020;28;21149;-72
2023/09/19 09:36:43;;;;;;;8.23;3.50;;;20.90;91.00;;;;;;4970941;28;20440;-72
2023/09/19 09:39:24;;;;;;;7.60;3.13;;;21.00;91.10;;;;;;4970921;28;20447;-72
2023/09/19 09:41:50;;;;;;;7.37;3.10;;;20.90;91.10;;;;;;4977390;28;21266;-72
2023/09/19 09:44:19;;;;;;;5.57;3.10;;;21.00;91.20;;;;;;4958432;28;20475;-71
2023/09/19 09:49:32;;;;;;;7.43;3.60;;;21.00;91.00;;;;;;4948825;28;20475;-72
2023/09/19 09:52:24;;;;;;;7.23;2.87;;;21.00;90.90;;;;;;4973647;28;20492;-72
2023/09/19 09:55:05;;;;;;;6.43;3.63;;;21.00;91.30;;;;;;4978675;28;20439;-72
2023/09/19 09:57:33;;;;;;;7.47;3.57;;;21.00;90.90;;;;;;4973333;28;20543;-71
2023/09/19 10:02:41;;;;;;;5.20;3.00;;;21.10;90.90;;;;;;4978287;28;20892;-72
2023/09/19 10:07:53;;;;;;;7.93;3.57;;;21.00;90.80;;;;;;4973045;28;20872;-72
2023/09/19 10:13:13;;;;;;;8.27;3.53;;;21.00;90.70;;;;;;4967731;28;20513;-72
2023/09/19 10:15:50;;;;;;;7.10;3.60;;;21.00;90.70;;;;;;4974299;28;20455;-72
2023/09/19 10:18:21;;;;;;;5.27;3.03;;;21.10;90.80;;;;;;4961779;28;20431;-72
2023/09/19 10:20:49;;;;;;;6.33;4.10;;;21.10;90.70;;;;;;4974767;28;20661;-72
2023/09/19 10:23:25;;;;;;;5.63;3.07;;;21.10;90.80;;;;;;4990338;28;20459;-72
2023/09/19 10:25:52;;;;;;;9.00;3.97;;;21.10;90.70;;;;;;4940354;28;20518;-72
2023/09/19 10:28:21;;;;;;;10.93;2.80;;;21.10;90.60;;;;;;4960067;28;21265;-72
2023/09/19 10:30:52;;;;;;;7.90;3.50;;;21.10;90.60;;;;;;4987049;28;20991;-72
2023/09/19 10:33:21;;;;;;;12.40;3.70;;;21.20;90.50;;;;;;4998378;28;20527;-72
2023/09/19 10:35:55;;;;;;;4.30;2.90;;;21.20;90.50;;;;;;4970946;28;20904;-72
2023/09/19 10:38:26;;;;;;;7.60;3.33;;;21.20;90.50;;;;;;4985256;28;20428;-72
2023/09/19 10:41:00;;;;;;;4.40;2.93;;;21.20;90.40;;;;;;4949253;28;20652;-72
2023/09/19 10:43:31;;;;;;;11.10;3.50;;;21.20;90.40;;;;;;4990696;28;20431;-72
2023/09/19 10:46:03;;;;;;;7.63;4.10;;;21.20;90.30;;;;;;4946710;28;20499;-72
2023/09/19 10:48:34;;;;;;;3.83;2.90;;;21.20;90.20;;;;;;4988363;28;20455;-72
2023/09/19 10:51:19;;;;;;;3.80;2.93;;;21.20;90.10;;;;;;4972111;28;20886;-72
2023/09/19 10:53:54;;;;;;;7.50;3.30;;;21.30;90.20;;;;;;4964202;28;20460;-71
2023/09/19 10:56:32;;;;;;;4.63;3.13;;;21.30;90.20;;;;;;4974375;28;20443;-72
2023/09/19 10:59:21;;;;;;;6.40;3.47;;;21.30;90.20;;;;;;4994282;28;20439;-71
2023/09/19 11:01:52;;;;;;;8.20;3.37;;;21.30;90.20;;;;;;4986489;28;21280;-72
2023/09/19 11:04:32;;;;;;;6.27;3.07;;;21.30;90.30;;;;;;4952810;28;20493;-72
2023/09/19 11:07:11;;;;;;;6.80;3.23;;;21.40;90.20;;;;;;4944626;28;20480;-71
2023/09/19 11:09:53;;;;;;;4.20;2.60;;;21.40;90.00;;;;;;4954480;28;20674;-71
2023/09/19 11:12:31;;;;;;;5.67;3.20;;;21.40;90.00;;;;;;4960538;28;20555;-72
2023/09/19 11:15:04;;;;;;;7.13;4.37;;;21.50;90.00;;;;;;4962987;28;20922;-72
2023/09/19 11:17:37;;;;;;;6.23;4.00;;;21.40;90.00;;;;;;4983052;28;20931;-72
2023/09/19 11:22:57;;;;;;;6.20;3.20;;;21.50;90.00;;;;;;4974665;28;20427;-74
2023/09/19 11:25:34;;;;;;;7.10;4.00;;;21.50;89.80;;;;;;4991117;28;20529;-72
2023/09/19 11:28:08;;;;;;;9.03;3.50;;;21.50;89.20;;;;;;4975394;28;21335;-71
2023/09/19 11:30:43;;;;;;;4.50;3.40;;;21.50;88.90;;;;;;4963140;28;20459;-72
2023/09/19 11:36:24;;;;;;;6.50;3.70;;;21.60;89.30;;;;;;4999259;28;20510;-71
2023/09/19 11:38:50;;;;;;;4.20;3.07;;;21.60;89.00;;;;;;4965791;28;20532;-72
2023/09/19 11:41:25;;;;;;;5.13;3.00;;;21.60;89.00;;;;;;4999139;28;20535;-72
2023/09/19 11:44:12;;;;;;;5.77;4.20;;;21.60;88.70;;;;;;4981398;28;20447;-72
2023/09/19 11:46:51;;;;;;;6.37;3.60;;;21.70;88.40;;;;;;4972396;28;20448;-72
2023/09/19 11:49:24;;;;;;;5.97;4.20;;;21.70;88.30;;;;;;4978843;28;20428;-72
2023/09/19 11:51:55;;;;;;;5.57;3.07;;;21.70;88.10;;;;;;4979460;28;20464;-72
2023/09/19 11:54:28;;;;;;;6.13;5.20;;;21.70;88.00;;;;;;4982423;28;20432;-72
2023/09/19 11:56:58;;;;;;;6.70;4.43;;;21.70;88.20;;;;;;4991151;28;20462;-72
2023/09/19 11:59:29;;;;;;;8.97;4.20;;;21.70;88.20;;;;;;4946271;28;20456;-72
2023/09/19 12:01:59;;;;;;;4.27;3.27;;;21.80;88.40;;;;;;4999104;28;20517;-72
2023/09/19 12:04:39;;;;;;;8.33;4.20;;;21.80;88.00;;;;;;4981927;28;20617;-72
2023/09/19 12:07:16;;;;;;;8.23;4.07;;;21.80;87.60;;;;;;4990181;28;20443;-72
2023/09/19 12:09:49;;;;;;;4.50;3.60;;;21.80;87.00;;;;;;4965439;28;20473;-72
2023/09/19 12:12:27;;;;;;;4.97;3.40;;;21.90;87.00;;;;;;4962530;28;20486;-72
2023/09/19 12:14:54;;;;;;;7.90;4.37;;;21.90;86.40;;;;;;4965813;28;21251;-72
2023/09/19 12:17:24;;;;;;;8.63;3.87;;;21.90;86.40;;;;;;4998507;28;20477;-72
2023/09/19 12:19:57;;;;;;;6.13;3.77;;;21.90;86.50;;;;;;4977412;28;20439;-72
2023/09/19 12:22:25;;;;;;;6.80;3.83;;;21.90;86.70;;;;;;4965230;28;20459;-72
2023/09/19 12:24:54;;;;;;;4.20;3.27;;;21.90;86.20;;;;;;4963869;28;21266;-72
2023/09/19 12:27:22;;;;;;;5.40;3.83;;;22.00;86.10;;;;;;4981518;28;20448;-72
2023/09/19 12:29:49;;;;;;;5.00;3.70;;;22.00;86.00;;;;;;4995748;28;20439;-72
2023/09/19 12:32:21;;;;;;;10.03;3.80;;;22.00;85.90;;;;;;4981107;28;20448;-72
2023/09/19 12:34:52;;;;;;;5.70;3.70;;;22.00;85.50;;;;;;4979628;28;20518;-71
2023/09/19 12:37:29;;;;;;;5.40;3.93;;;22.00;85.50;;;;;;4998088;28;20512;-72
2023/09/19 12:40:17;;;;;;;4.93;3.60;;;22.00;85.80;;;;;;4981181;28;20432;-71
2023/09/19 12:42:47;;;;;;;4.60;3.70;;;22.00;85.70;;;;;;4965121;28;20723;-72
2023/09/19 12:45:15;;;;;;;5.20;3.90;;;22.10;85.90;;;;;;4997855;28;20479;-72
2023/09/19 12:48:20;;;;;;;6.60;3.40;;;22.10;86.20;;;;;;4964760;28;20439;-72
2023/09/19 12:51:00;;;;;;;6.17;3.73;;;22.10;86.00;;;;;;4979511;28;20477;-71
2023/09/19 12:53:29;;;;;;;7.20;3.50;;;22.10;85.30;;;;;;4998221;28;20444;-72
2023/09/19 12:55:59;;;;;;;9.80;3.77;;;22.10;84.60;;;;;;4997692;28;20440;-71
2023/09/19 12:58:26;;;;;;;3.73;3.33;;;22.10;84.90;;;;;;4997298;28;20544;-72
2023/09/19 13:00:53;;;;;;;6.70;3.87;;;22.10;85.20;;;;;;4981465;28;20459;-71
2023/09/19 13:03:28;;;;;;;5.13;3.47;;;22.20;85.40;;;;;;4965980;28;21064;-72
2023/09/19 13:05:55;;;;;;;5.10;3.80;;;22.20;85.70;;;;;;4981285;28;20479;-71
2023/09/19 13:08:32;;;;;;;4.30;2.87;;;22.20;85.70;;;;;;4963153;28;20517;-71
2023/09/19 13:11:21;;;;;;;3.90;3.20;;;22.20;85.70;;;;;;4981266;28;21057;-72
2023/09/19 13:14:11;;;;;;;8.73;4.43;;;22.20;85.60;;;;;;4999602;28;20443;-71
2023/09/19 13:17:19;;;;;;;6.07;4.00;;;22.30;85.60;;;;;;4958698;28;21212;-72
2023/09/19 13:19:54;;;;;;;5.47;3.40;;;22.30;84.80;;;;;;4966779;28;20444;-72
2023/09/19 13:23:10;;;;;;;4.23;3.30;;;22.30;84.60;;;;;;4983201;28;20447;-72